sensor_id;sensor_type;location;lat;lon;timestamp;pressure;altitude;pressure_sealevel;temperature;humidity
22605;BME280;11469;49.024;8.246;2023-07-13T00:00:28;100344.69;;;18.61;68.78
22605;BME280;11469;49.024;8.246;2023-07-13T00:02:53;100343.06;;;18.60;68.71
22605;BME280;11469;49.024;8.246;2023-07-13T00:05:22;100352.81;;;18.55;68.53
22605;BME280;11469;49.024;8.246;2023-07-13T00:07:49;100353.63;;;18.55;68.85
22605;BME280;11469;49.024;8.246;2023-07-13T00:10:15;100350.41;;;18.50;68.60
22605;BME280;11469;49.024;8.246;2023-07-13T00:12:40;100354.00;;;18.61;67.87
22605;BME280;11469;49.024;8.246;2023-07-13T00:15:18;100360.09;;;18.56;68.13
22605;BME280;11469;49.024;8.246;2023-07-13T00:17:49;100350.41;;;18.50;68.47
22605;BME280;11469;49.024;8.246;2023-07-13T00:20:14;100356.13;;;18.46;68.76
22605;BME280;11469;49.024;8.246;2023-07-13T00:22:40;100359.78;;;18.43;69.22
22605;BME280;11469;49.024;8.246;2023-07-13T00:25:05;100364.31;;;18.37;69.60
22605;BME280;11469;49.024;8.246;2023-07-13T00:27:31;100360.31;;;18.31;69.68
22605;BME280;11469;49.024;8.246;2023-07-13T00:29:57;100354.22;;;18.33;69.79
22605;BME280;11469;49.024;8.246;2023-07-13T00:32:23;100355.38;;;18.39;69.58
22605;BME280;11469;49.024;8.246;2023-07-13T00:34:51;100354.13;;;18.43;69.25
22605;BME280;11469;49.024;8.246;2023-07-13T00:37:16;100352.63;;;18.24;70.01
22605;BME280;11469;49.024;8.246;2023-07-13T00:39:42;100353.50;;;18.18;69.95
22605;BME280;11469;49.024;8.246;2023-07-13T00:42:07;100347.00;;;18.17;69.73
22605;BME280;11469;49.024;8.246;2023-07-13T00:44:33;100355.09;;;18.19;69.50
22605;BME280;11469;49.024;8.246;2023-07-13T00:46:58;100359.94;;;18.22;69.71
22605;BME280;11469;49.024;8.246;2023-07-13T00:49:26;100355.53;;;18.14;69.84
22605;BME280;11469;49.024;8.246;2023-07-13T00:51:59;100360.03;;;18.08;70.22
22605;BME280;11469;49.024;8.246;2023-07-13T00:54:34;100362.47;;;18.06;70.33
22605;BME280;11469;49.024;8.246;2023-07-13T00:57:03;100358.81;;;18.05;70.57
22605;BME280;11469;49.024;8.246;2023-07-13T00:59:31;100353.59;;;17.97;71.59
22605;BME280;11469;49.024;8.246;2023-07-13T01:01:59;100361.75;;;17.91;72.11
22605;BME280;11469;49.024;8.246;2023-07-13T01:04:25;100363.84;;;17.80;74.12
22605;BME280;11469;49.024;8.246;2023-07-13T01:06:51;100365.06;;;17.65;75.47
22605;BME280;11469;49.024;8.246;2023-07-13T01:09:17;100371.16;;;17.56;76.35
22605;BME280;11469;49.024;8.246;2023-07-13T01:11:43;100364.75;;;17.48;77.49
22605;BME280;11469;49.024;8.246;2023-07-13T01:14:10;100365.59;;;17.35;78.49
22605;BME280;11469;49.024;8.246;2023-07-13T01:16:37;100349.81;;;17.27;78.53
22605;BME280;11469;49.024;8.246;2023-07-13T01:19:11;100349.84;;;17.16;78.27
22605;BME280;11469;49.024;8.246;2023-07-13T01:21:38;100362.78;;;17.13;78.26
22605;BME280;11469;49.024;8.246;2023-07-13T01:24:08;100363.59;;;17.07;78.68
22605;BME280;11469;49.024;8.246;2023-07-13T01:26:34;100355.53;;;17.05;79.05
22605;BME280;11469;49.024;8.246;2023-07-13T01:28:59;100358.34;;;17.05;79.27
22605;BME280;11469;49.024;8.246;2023-07-13T01:31:25;100355.94;;;17.04;79.41
22605;BME280;11469;49.024;8.246;2023-07-13T01:33:51;100355.97;;;17.00;79.54
22605;BME280;11469;49.024;8.246;2023-07-13T01:36:16;100362.00;;;17.02;79.49
22605;BME280;11469;49.024;8.246;2023-07-13T01:38:41;100348.28;;;16.97;79.91
22605;BME280;11469;49.024;8.246;2023-07-13T01:41:07;100349.91;;;16.95;80.17
22605;BME280;11469;49.024;8.246;2023-07-13T01:43:33;100358.81;;;16.93;80.37
22605;BME280;11469;49.024;8.246;2023-07-13T01:45:58;100358.00;;;16.89;81.01
22605;BME280;11469;49.024;8.246;2023-07-13T01:48:26;100367.69;;;16.84;81.29
22605;BME280;11469;49.024;8.246;2023-07-13T01:50:52;100355.97;;;16.75;81.82
22605;BME280;11469;49.024;8.246;2023-07-13T01:53:17;100365.69;;;16.71;82.18
22605;BME280;11469;49.024;8.246;2023-07-13T01:55:42;100372.53;;;16.70;82.54
22605;BME280;11469;49.024;8.246;2023-07-13T01:58:08;100371.34;;;16.71;82.46
22605;BME280;11469;49.024;8.246;2023-07-13T02:00:33;100373.75;;;16.65;82.80
22605;BME280;11469;49.024;8.246;2023-07-13T02:02:59;100374.53;;;16.58;83.37
22605;BME280;11469;49.024;8.246;2023-07-13T02:05:24;100370.50;;;16.52;83.67
22605;BME280;11469;49.024;8.246;2023-07-13T02:07:50;100375.75;;;16.40;84.41
22605;BME280;11469;49.024;8.246;2023-07-13T02:10:16;100370.06;;;16.29;85.10
22605;BME280;11469;49.024;8.246;2023-07-13T02:12:42;100371.66;;;16.26;85.60
22605;BME280;11469;49.024;8.246;2023-07-13T02:15:08;100371.66;;;16.26;86.07
22605;BME280;11469;49.024;8.246;2023-07-13T02:17:34;100367.22;;;16.22;85.74
22605;BME280;11469;49.024;8.246;2023-07-13T02:20:01;100365.16;;;16.12;85.98
22605;BME280;11469;49.024;8.246;2023-07-13T02:22:26;100363.13;;;16.09;85.50
22605;BME280;11469;49.024;8.246;2023-07-13T02:24:51;100374.41;;;15.91;85.79
22605;BME280;11469;49.024;8.246;2023-07-13T02:27:17;100373.22;;;15.96;85.83
22605;BME280;11469;49.024;8.246;2023-07-13T02:29:42;100376.84;;;15.89;86.46
22605;BME280;11469;49.024;8.246;2023-07-13T02:32:08;100369.16;;;15.86;86.81
22605;BME280;11469;49.024;8.246;2023-07-13T02:34:34;100368.75;;;15.87;87.14
22605;BME280;11469;49.024;8.246;2023-07-13T02:36:59;100377.22;;;15.87;87.16
22605;BME280;11469;49.024;8.246;2023-07-13T02:39:24;100385.72;;;15.91;87.14
22605;BME280;11469;49.024;8.246;2023-07-13T02:41:50;100378.00;;;15.81;86.86
22605;BME280;11469;49.024;8.246;2023-07-13T02:44:15;100375.53;;;15.72;87.50
22605;BME280;11469;49.024;8.246;2023-07-13T02:46:41;100376.72;;;15.68;87.21
22605;BME280;11469;49.024;8.246;2023-07-13T02:49:06;100374.69;;;15.65;87.81
22605;BME280;11469;49.024;8.246;2023-07-13T02:51:32;100379.88;;;15.48;88.91
22605;BME280;11469;49.024;8.246;2023-07-13T02:54:02;100371.75;;;15.43;89.59
22605;BME280;11469;49.024;8.246;2023-07-13T02:56:30;100375.78;;;15.42;90.46
22605;BME280;11469;49.024;8.246;2023-07-13T02:58:56;100374.50;;;15.29;91.64
22605;BME280;11469;49.024;8.246;2023-07-13T03:01:22;100368.38;;;15.20;91.57
22605;BME280;11469;49.024;8.246;2023-07-13T03:03:49;100375.63;;;15.14;90.96
22605;BME280;11469;49.024;8.246;2023-07-13T03:06:16;100375.16;;;15.05;91.79
22605;BME280;11469;49.024;8.246;2023-07-13T03:08:42;100370.31;;;15.02;92.16
22605;BME280;11469;49.024;8.246;2023-07-13T03:11:10;100379.94;;;14.93;93.36
22605;BME280;11469;49.024;8.246;2023-07-13T03:13:37;100373.88;;;14.91;93.53
22605;BME280;11469;49.024;8.246;2023-07-13T03:16:02;100382.34;;;14.95;93.25
22605;BME280;11469;49.024;8.246;2023-07-13T03:18:28;100376.75;;;15.02;93.38
22605;BME280;11469;49.024;8.246;2023-07-13T03:20:54;100384.84;;;15.04;93.42
22605;BME280;11469;49.024;8.246;2023-07-13T03:23:20;100387.25;;;15.02;93.13
22605;BME280;11469;49.024;8.246;2023-07-13T03:25:46;100388.34;;;14.90;92.63
22605;BME280;11469;49.024;8.246;2023-07-13T03:28:12;100384.28;;;14.84;93.17
22605;BME280;11469;49.024;8.246;2023-07-13T03:30:38;100397.56;;;14.83;93.38
22605;BME280;11469;49.024;8.246;2023-07-13T03:33:04;100398.75;;;14.79;93.36
22605;BME280;11469;49.024;8.246;2023-07-13T03:35:30;100399.09;;;14.74;94.19
22605;BME280;11469;49.024;8.246;2023-07-13T03:37:57;100403.53;;;14.75;94.53
22605;BME280;11469;49.024;8.246;2023-07-13T03:40:24;100401.94;;;14.74;95.59
22605;BME280;11469;49.024;8.246;2023-07-13T03:42:51;100405.09;;;14.69;96.14
22605;BME280;11469;49.024;8.246;2023-07-13T03:45:16;100403.50;;;14.71;96.04
22605;BME280;11469;49.024;8.246;2023-07-13T03:47:42;100411.97;;;14.71;96.77
22605;BME280;11469;49.024;8.246;2023-07-13T03:50:07;100412.78;;;14.72;96.35
22605;BME280;11469;49.024;8.246;2023-07-13T03:52:33;100416.81;;;14.71;96.30
22605;BME280;11469;49.024;8.246;2023-07-13T03:54:58;100410.78;;;14.72;96.12
22605;BME280;11469;49.024;8.246;2023-07-13T03:57:23;100412.38;;;14.70;96.59
22605;BME280;11469;49.024;8.246;2023-07-13T03:59:49;100419.28;;;14.76;96.04
22605;BME280;11469;49.024;8.246;2023-07-13T04:02:14;100421.72;;;14.81;96.11
22605;BME280;11469;49.024;8.246;2023-07-13T04:04:40;100426.16;;;14.78;95.61
22605;BME280;11469;49.024;8.246;2023-07-13T04:07:06;100432.22;;;14.80;95.19
22605;BME280;11469;49.024;8.246;2023-07-13T04:09:33;100424.63;;;14.88;95.07
22605;BME280;11469;49.024;8.246;2023-07-13T04:11:59;100433.53;;;14.93;94.17
22605;BME280;11469;49.024;8.246;2023-07-13T04:14:24;100429.91;;;14.93;94.03
22605;BME280;11469;49.024;8.246;2023-07-13T04:16:49;100429.53;;;14.98;93.93
22605;BME280;11469;49.024;8.246;2023-07-13T04:19:15;100436.00;;;14.99;93.85
22605;BME280;11469;49.024;8.246;2023-07-13T04:21:40;100437.97;;;14.94;94.27
22605;BME280;11469;49.024;8.246;2023-07-13T04:24:06;100437.16;;;14.94;93.78
22605;BME280;11469;49.024;8.246;2023-07-13T04:26:32;100436.75;;;14.92;94.35
22605;BME280;11469;49.024;8.246;2023-07-13T04:29:01;100431.09;;;14.92;94.22
22605;BME280;11469;49.024;8.246;2023-07-13T04:31:29;100437.56;;;14.92;93.77
22605;BME280;11469;49.024;8.246;2023-07-13T04:33:54;100439.31;;;15.08;93.94
22605;BME280;11469;49.024;8.246;2023-07-13T04:36:20;100448.31;;;15.27;93.63
22605;BME280;11469;49.024;8.246;2023-07-13T04:38:45;100443.84;;;15.26;92.34
22605;BME280;11469;49.024;8.246;2023-07-13T04:41:13;100439.84;;;15.31;91.83
22605;BME280;11469;49.024;8.246;2023-07-13T04:43:40;100448.38;;;15.38;90.85
22605;BME280;11469;49.024;8.246;2023-07-13T04:46:12;100442.38;;;15.47;90.47
22605;BME280;11469;49.024;8.246;2023-07-13T04:48:38;100436.47;;;15.66;90.28
22605;BME280;11469;49.024;8.246;2023-07-13T04:51:04;100457.97;;;15.85;89.12
22605;BME280;11469;49.024;8.246;2023-07-13T04:53:30;100448.69;;;15.88;89.07
22605;BME280;11469;49.024;8.246;2023-07-13T04:55:57;100452.75;;;15.90;88.63
22605;BME280;11469;49.024;8.246;2023-07-13T04:58:23;100454.75;;;15.90;89.32
22605;BME280;11469;49.024;8.246;2023-07-13T05:00:49;100452.78;;;15.98;90.00
22605;BME280;11469;49.024;8.246;2023-07-13T05:03:14;100460.88;;;16.06;90.17
22605;BME280;11469;49.024;8.246;2023-07-13T05:05:40;100452.81;;;16.15;90.10
22605;BME280;11469;49.024;8.246;2023-07-13T05:08:05;100462.53;;;16.21;90.12
22605;BME280;11469;49.024;8.246;2023-07-13T05:10:32;100466.59;;;16.24;90.23
22605;BME280;11469;49.024;8.246;2023-07-13T05:12:58;100460.13;;;16.20;90.20
22605;BME280;11469;49.024;8.246;2023-07-13T05:15:23;100454.44;;;16.16;90.71
22605;BME280;11469;49.024;8.246;2023-07-13T05:17:50;100460.09;;;16.16;91.79
22605;BME280;11469;49.024;8.246;2023-07-13T05:20:16;100465.34;;;16.14;91.92
22605;BME280;11469;49.024;8.246;2023-07-13T05:22:43;100460.50;;;16.15;91.92
22605;BME280;11469;49.024;8.246;2023-07-13T05:25:08;100468.59;;;16.16;92.43
22605;BME280;11469;49.024;8.246;2023-07-13T05:27:34;100475.09;;;16.27;92.68
22605;BME280;11469;49.024;8.246;2023-07-13T05:30:01;100476.75;;;16.43;92.83
22605;BME280;11469;49.024;8.246;2023-07-13T05:32:26;100476.03;;;16.71;92.11
22605;BME280;11469;49.024;8.246;2023-07-13T05:34:52;100471.63;;;16.91;90.44
22605;BME280;11469;49.024;8.246;2023-07-13T05:37:17;100470.81;;;16.98;89.92
22605;BME280;11469;49.024;8.246;2023-07-13T05:39:43;100469.19;;;17.18;90.20
22605;BME280;11469;49.024;8.246;2023-07-13T05:42:09;100473.19;;;17.52;89.16
22605;BME280;11469;49.024;8.246;2023-07-13T05:44:35;100477.94;;;18.05;88.74
22605;BME280;11469;49.024;8.246;2023-07-13T05:47:00;100476.06;;;18.61;86.38
22605;BME280;11469;49.024;8.246;2023-07-13T05:49:26;100484.28;;;19.04;82.52
22605;BME280;11469;49.024;8.246;2023-07-13T05:51:51;100486.19;;;19.17;81.23
22605;BME280;11469;49.024;8.246;2023-07-13T05:54:16;100489.72;;;19.36;80.20
22605;BME280;11469;49.024;8.246;2023-07-13T05:56:42;100489.16;;;19.51;79.80
22605;BME280;11469;49.024;8.246;2023-07-13T05:59:07;100497.84;;;19.78;79.38
22605;BME280;11469;49.024;8.246;2023-07-13T06:01:33;100500.53;;;19.89;79.07
22605;BME280;11469;49.024;8.246;2023-07-13T06:03:58;100500.25;;;19.80;78.91
22605;BME280;11469;49.024;8.246;2023-07-13T06:06:23;100508.41;;;19.78;79.82
22605;BME280;11469;49.024;8.246;2023-07-13T06:08:49;100518.09;;;19.84;80.02
22605;BME280;11469;49.024;8.246;2023-07-13T06:11:23;100520.78;;;19.95;79.95
22605;BME280;11469;49.024;8.246;2023-07-13T06:13:49;100512.41;;;20.18;78.90
22605;BME280;11469;49.024;8.246;2023-07-13T06:16:15;100519.38;;;20.47;76.87
22605;BME280;11469;49.024;8.246;2023-07-13T06:18:41;100523.41;;;20.50;75.48
22605;BME280;11469;49.024;8.246;2023-07-13T06:23:33;100530.72;;;21.08;73.78
22605;BME280;11469;49.024;8.246;2023-07-13T06:25:59;100531.06;;;21.37;72.44
22605;BME280;11469;49.024;8.246;2023-07-13T06:28:24;100545.66;;;21.66;71.60
22605;BME280;11469;49.024;8.246;2023-07-13T06:30:50;100536.31;;;21.66;70.78
22605;BME280;11469;49.024;8.246;2023-07-13T06:33:15;100544.59;;;21.80;70.50
22605;BME280;11469;49.024;8.246;2023-07-13T06:35:40;100548.00;;;21.95;69.27
22605;BME280;11469;49.024;8.246;2023-07-13T06:38:06;100547.38;;;21.83;69.50
22605;BME280;11469;49.024;8.246;2023-07-13T06:40:31;100544.66;;;21.76;69.21
22605;BME280;11469;49.024;8.246;2023-07-13T06:42:56;100548.06;;;21.91;68.19
22605;BME280;11469;49.024;8.246;2023-07-13T06:45:22;100552.22;;;22.30;66.84
22605;BME280;11469;49.024;8.246;2023-07-13T06:47:48;100561.09;;;22.55;62.93
22605;BME280;11469;49.024;8.246;2023-07-13T06:50:13;100554.66;;;22.51;60.79
22605;BME280;11469;49.024;8.246;2023-07-13T06:52:38;100560.13;;;22.62;61.30
22605;BME280;11469;49.024;8.246;2023-07-13T06:55:04;100559.19;;;22.68;61.97
22605;BME280;11469;49.024;8.246;2023-07-13T06:57:30;100547.72;;;22.88;63.69
22605;BME280;11469;49.024;8.246;2023-07-13T06:59:55;100558.47;;;23.00;62.52
22605;BME280;11469;49.024;8.246;2023-07-13T07:02:20;100555.78;;;22.73;62.90
22605;BME280;11469;49.024;8.246;2023-07-13T07:04:46;100551.19;;;22.79;62.22
22605;BME280;11469;49.024;8.246;2023-07-13T07:07:11;100548.66;;;23.01;59.55
22605;BME280;11469;49.024;8.246;2023-07-13T07:09:36;100550.84;;;23.13;57.99
22605;BME280;11469;49.024;8.246;2023-07-13T07:12:02;100565.38;;;23.19;57.36
22605;BME280;11469;49.024;8.246;2023-07-13T07:14:28;100557.88;;;23.25;55.76
22605;BME280;11469;49.024;8.246;2023-07-13T07:16:54;100563.19;;;23.43;54.96
22605;BME280;11469;49.024;8.246;2023-07-13T07:19:19;100561.19;;;23.24;54.38
22605;BME280;11469;49.024;8.246;2023-07-13T07:21:45;100560.59;;;23.48;55.05
22605;BME280;11469;49.024;8.246;2023-07-13T07:24:10;100567.66;;;23.44;54.88
22605;BME280;11469;49.024;8.246;2023-07-13T07:26:35;100565.06;;;23.66;53.32
22605;BME280;11469;49.024;8.246;2023-07-13T07:29:04;100569.09;;;23.68;48.72
22605;BME280;11469;49.024;8.246;2023-07-13T07:31:29;100560.69;;;23.45;47.37
22605;BME280;11469;49.024;8.246;2023-07-13T07:33:55;100565.06;;;23.49;51.29
22605;BME280;11469;49.024;8.246;2023-07-13T07:36:20;100567.91;;;23.82;52.56
22605;BME280;11469;49.024;8.246;2023-07-13T07:38:45;100573.47;;;23.89;52.39
22605;BME280;11469;49.024;8.246;2023-07-13T07:41:11;100572.81;;;23.98;51.86
22605;BME280;11469;49.024;8.246;2023-07-13T07:43:37;100574.19;;;24.22;51.13
22605;BME280;11469;49.024;8.246;2023-07-13T07:46:02;100575.22;;;24.44;50.21
22605;BME280;11469;49.024;8.246;2023-07-13T07:48:28;100579.06;;;24.54;49.33
22605;BME280;11469;49.024;8.246;2023-07-13T07:50:53;100581.69;;;24.61;49.10
22605;BME280;11469;49.024;8.246;2023-07-13T07:53:18;100574.22;;;24.51;48.30
22605;BME280;11469;49.024;8.246;2023-07-13T07:55:44;100572.16;;;24.52;47.44
22605;BME280;11469;49.024;8.246;2023-07-13T07:58:10;100578.59;;;24.10;46.10
22605;BME280;11469;49.024;8.246;2023-07-13T08:00:36;100577.94;;;24.19;47.28
22605;BME280;11469;49.024;8.246;2023-07-13T08:03:01;100580.56;;;24.30;47.64
22605;BME280;11469;49.024;8.246;2023-07-13T08:05:27;100581.72;;;24.32;47.46
22605;BME280;11469;49.024;8.246;2023-07-13T08:07:52;100576.31;;;24.05;46.77
22605;BME280;11469;49.024;8.246;2023-07-13T08:10:18;100564.28;;;24.10;46.78
22605;BME280;11469;49.024;8.246;2023-07-13T08:12:44;100574.28;;;24.19;46.92
22605;BME280;11469;49.024;8.246;2023-07-13T08:15:15;100581.44;;;24.27;46.05
22605;BME280;11469;49.024;8.246;2023-07-13T08:17:41;100577.22;;;24.31;46.15
22605;BME280;11469;49.024;8.246;2023-07-13T08:20:07;100581.06;;;24.25;46.58
22605;BME280;11469;49.024;8.246;2023-07-13T08:22:34;100575.34;;;24.41;46.88
22605;BME280;11469;49.024;8.246;2023-07-13T08:24:59;100574.94;;;24.55;46.05
22605;BME280;11469;49.024;8.246;2023-07-13T08:27:26;100572.78;;;24.72;45.87
22605;BME280;11469;49.024;8.246;2023-07-13T08:29:52;100578.28;;;24.79;46.21
22605;BME280;11469;49.024;8.246;2023-07-13T08:32:20;100578.34;;;24.63;45.46
22605;BME280;11469;49.024;8.246;2023-07-13T08:34:46;100579.44;;;24.40;45.66
22605;BME280;11469;49.024;8.246;2023-07-13T08:37:11;100572.06;;;24.26;46.27
22605;BME280;11469;49.024;8.246;2023-07-13T08:39:37;100574.28;;;24.35;45.77
22605;BME280;11469;49.024;8.246;2023-07-13T08:45:04;100568.25;;;24.45;45.25
22605;BME280;11469;49.024;8.246;2023-07-13T08:47:35;100572.41;;;24.57;45.17
22605;BME280;11469;49.024;8.246;2023-07-13T08:50:03;100573.38;;;24.79;45.54
22605;BME280;11469;49.024;8.246;2023-07-13T08:52:38;100573.22;;;24.70;43.86
22605;BME280;11469;49.024;8.246;2023-07-13T08:57:35;100575.78;;;24.81;44.72
22605;BME280;11469;49.024;8.246;2023-07-13T09:00:01;100570.78;;;24.98;45.75
22605;BME280;11469;49.024;8.246;2023-07-13T09:02:41;100575.03;;;25.31;43.35
22605;BME280;11469;49.024;8.246;2023-07-13T09:05:12;100562.16;;;25.61;43.20
22605;BME280;11469;49.024;8.246;2023-07-13T09:07:45;100570.56;;;25.68;42.36
22605;BME280;11469;49.024;8.246;2023-07-13T09:13:35;100576.66;;;25.32;42.73
22605;BME280;11469;49.024;8.246;2023-07-13T09:15:52;100577.09;;;25.31;43.64
22605;BME280;11469;49.024;8.246;2023-07-13T09:21:14;100571.13;;;25.25;42.70
22605;BME280;11469;49.024;8.246;2023-07-13T09:23:40;100567.81;;;25.39;42.46
22605;BME280;11469;49.024;8.246;2023-07-13T09:26:12;100564.59;;;25.50;42.87
22605;BME280;11469;49.024;8.246;2023-07-13T09:28:47;100565.63;;;25.31;41.85
22605;BME280;11469;49.024;8.246;2023-07-13T09:31:34;100569.28;;;25.06;42.86
22605;BME280;11469;49.024;8.246;2023-07-13T09:34:03;100563.69;;;25.28;42.95
22605;BME280;11469;49.024;8.246;2023-07-13T09:36:31;100565.97;;;25.07;43.11
22605;BME280;11469;49.024;8.246;2023-07-13T09:44:18;100561.25;;;25.77;42.76
22605;BME280;11469;49.024;8.246;2023-07-13T09:46:55;100556.75;;;26.10;41.96
22605;BME280;11469;49.024;8.246;2023-07-13T09:49:25;100549.41;;;26.09;41.56
22605;BME280;11469;49.024;8.246;2023-07-13T09:52:07;100559.75;;;26.07;41.47
22605;BME280;11469;49.024;8.246;2023-07-13T09:54:36;100567.06;;;25.99;41.81
22605;BME280;11469;49.024;8.246;2023-07-13T09:57:11;100571.00;;;26.14;41.08
22605;BME280;11469;49.024;8.246;2023-07-13T09:59:40;100562.81;;;26.25;41.36
22605;BME280;11469;49.024;8.246;2023-07-13T10:02:30;100555.97;;;26.44;41.42
22605;BME280;11469;49.024;8.246;2023-07-13T10:05:07;100562.56;;;26.54;40.60
22605;BME280;11469;49.024;8.246;2023-07-13T10:07:38;100565.91;;;26.53;40.28
22605;BME280;11469;49.024;8.246;2023-07-13T10:10:14;100565.16;;;26.61;40.56
22605;BME280;11469;49.024;8.246;2023-07-13T10:12:40;100557.72;;;26.42;40.31
22605;BME280;11469;49.024;8.246;2023-07-13T10:15:12;100553.22;;;26.41;39.97
22605;BME280;11469;49.024;8.246;2023-07-13T10:17:39;100553.81;;;26.36;39.23
22605;BME280;11469;49.024;8.246;2023-07-13T10:20:06;100540.78;;;26.66;38.38
22605;BME280;11469;49.024;8.246;2023-07-13T10:22:39;100557.06;;;26.91;39.16
22605;BME280;11469;49.024;8.246;2023-07-13T10:25:15;100551.41;;;27.09;37.99
22605;BME280;11469;49.024;8.246;2023-07-13T10:27:42;100550.38;;;26.94;36.36
22605;BME280;11469;49.024;8.246;2023-07-13T10:32:43;100544.47;;;26.97;37.36
22605;BME280;11469;49.024;8.246;2023-07-13T10:35:12;100542.31;;;26.80;36.57
22605;BME280;11469;49.024;8.246;2023-07-13T10:37:49;100544.38;;;26.57;37.86
22605;BME280;11469;49.024;8.246;2023-07-13T10:40:26;100535.06;;;26.44;37.83
22605;BME280;11469;49.024;8.246;2023-07-13T10:42:54;100535.22;;;26.50;38.00
22605;BME280;11469;49.024;8.246;2023-07-13T10:45:23;100535.94;;;26.85;39.19
22605;BME280;11469;49.024;8.246;2023-07-13T10:47:50;100547.34;;;26.97;37.93
22605;BME280;11469;49.024;8.246;2023-07-13T10:50:23;100546.19;;;26.64;37.66
22605;BME280;11469;49.024;8.246;2023-07-13T10:52:52;100548.59;;;26.65;37.68
22605;BME280;11469;49.024;8.246;2023-07-13T10:58:29;100543.84;;;26.71;38.70
22605;BME280;11469;49.024;8.246;2023-07-13T11:01:15;100548.38;;;26.82;38.62
22605;BME280;11469;49.024;8.246;2023-07-13T11:03:55;100546.19;;;26.64;38.59
22605;BME280;11469;49.024;8.246;2023-07-13T11:08:55;100538.91;;;26.28;38.23
22605;BME280;11469;49.024;8.246;2023-07-13T11:24:58;100515.09;;;26.28;39.05
22605;BME280;11469;49.024;8.246;2023-07-13T11:27:41;100521.78;;;26.68;38.92
22605;BME280;11469;49.024;8.246;2023-07-13T11:33:16;100525.06;;;27.10;36.58
22605;BME280;11469;49.024;8.246;2023-07-13T11:35:57;100524.38;;;27.47;36.84
22605;BME280;11469;49.024;8.246;2023-07-13T11:38:38;100518.84;;;27.61;34.85
22605;BME280;11469;49.024;8.246;2023-07-13T11:41:20;100523.81;;;27.70;35.37
22605;BME280;11469;49.024;8.246;2023-07-13T11:43:52;100527.38;;;28.01;35.44
22605;BME280;11469;49.024;8.246;2023-07-13T11:48:46;100531.50;;;27.91;33.52
22605;BME280;11469;49.024;8.246;2023-07-13T11:51:25;100519.84;;;27.77;34.48
22605;BME280;11469;49.024;8.246;2023-07-13T11:53:53;100520.44;;;27.62;33.64
22605;BME280;11469;49.024;8.246;2023-07-13T11:56:19;100523.34;;;27.90;33.66
22605;BME280;11469;49.024;8.246;2023-07-13T11:58:49;100520.50;;;27.81;32.60
22605;BME280;11469;49.024;8.246;2023-07-13T12:01:22;100518.53;;;27.68;33.50
22605;BME280;11469;49.024;8.246;2023-07-13T12:03:49;100511.22;;;27.86;33.52
22605;BME280;11469;49.024;8.246;2023-07-13T12:06:33;100524.16;;;27.90;33.21
22605;BME280;11469;49.024;8.246;2023-07-13T12:09:00;100514.41;;;28.15;33.62
22605;BME280;11469;49.024;8.246;2023-07-13T12:11:28;100507.38;;;28.16;33.17
22605;BME280;11469;49.024;8.246;2023-07-13T12:13:54;100509.75;;;27.99;33.88
22605;BME280;11469;49.024;8.246;2023-07-13T12:16:29;100527.03;;;27.81;33.84
22605;BME280;11469;49.024;8.246;2023-07-13T12:18:58;100518.88;;;27.70;33.70
22605;BME280;11469;49.024;8.246;2023-07-13T12:21:38;100513.56;;;27.60;33.33
22605;BME280;11469;49.024;8.246;2023-07-13T12:24:04;100512.53;;;27.44;33.92
22605;BME280;11469;49.024;8.246;2023-07-13T12:26:31;100525.00;;;27.32;33.66
22605;BME280;11469;49.024;8.246;2023-07-13T12:29:00;100524.84;;;27.36;33.72
22605;BME280;11469;49.024;8.246;2023-07-13T12:31:36;100525.31;;;27.43;32.55
22605;BME280;11469;49.024;8.246;2023-07-13T12:34:11;100531.56;;;27.51;34.03
22605;BME280;11469;49.024;8.246;2023-07-13T12:36:46;100519.66;;;27.89;32.27
22605;BME280;11469;49.024;8.246;2023-07-13T12:39:23;100530.41;;;27.98;32.97
22605;BME280;11469;49.024;8.246;2023-07-13T12:41:52;100529.91;;;27.90;32.01
22605;BME280;11469;49.024;8.246;2023-07-13T12:44:30;100526.56;;;27.92;32.56
22605;BME280;11469;49.024;8.246;2023-07-13T12:47:06;100525.13;;;27.96;31.28
22605;BME280;11469;49.024;8.246;2023-07-13T12:49:41;100513.44;;;28.18;32.00
22605;BME280;11469;49.024;8.246;2023-07-13T12:52:16;100522.72;;;28.40;31.06
22605;BME280;11469;49.024;8.246;2023-07-13T12:54:52;100523.09;;;28.24;31.03
22605;BME280;11469;49.024;8.246;2023-07-13T12:57:19;100530.56;;;27.76;31.58
22605;BME280;11469;49.024;8.246;2023-07-13T12:59:44;100519.22;;;28.18;31.37
22605;BME280;11469;49.024;8.246;2023-07-13T13:02:23;100524.00;;;28.39;31.27
22605;BME280;11469;49.024;8.246;2023-07-13T13:04:51;100519.38;;;28.15;30.46
22605;BME280;11469;49.024;8.246;2023-07-13T13:07:17;100525.78;;;28.09;30.89
22605;BME280;11469;49.024;8.246;2023-07-13T13:09:45;100527.56;;;28.25;31.04
22605;BME280;11469;49.024;8.246;2023-07-13T13:12:12;100533.44;;;28.03;31.29
22605;BME280;11469;49.024;8.246;2023-07-13T13:14:37;100539.69;;;28.02;30.69
22605;BME280;11469;49.024;8.246;2023-07-13T13:17:21;100527.19;;;27.68;30.88
22605;BME280;11469;49.024;8.246;2023-07-13T13:19:47;100530.72;;;27.91;31.83
22605;BME280;11469;49.024;8.246;2023-07-13T13:22:12;100526.06;;;27.93;32.10
22605;BME280;11469;49.024;8.246;2023-07-13T13:24:39;100531.69;;;27.88;31.85
22605;BME280;11469;49.024;8.246;2023-07-13T13:27:04;100531.97;;;27.62;32.69
22605;BME280;11469;49.024;8.246;2023-07-13T13:29:31;100522.88;;;28.09;32.98
22605;BME280;11469;49.024;8.246;2023-07-13T13:31:58;100530.59;;;28.31;32.61
22605;BME280;11469;49.024;8.246;2023-07-13T13:34:24;100522.56;;;28.53;31.60
22605;BME280;11469;49.024;8.246;2023-07-13T13:36:52;100527.19;;;28.51;31.60
22605;BME280;11469;49.024;8.246;2023-07-13T13:39:37;100524.97;;;28.36;31.81